createdAt,value
2023-05-04T00:07:48.411Z,5.67
2023-05-04T00:17:50.648Z,6.60
2023-05-04T00:27:52.769Z,6.27
2023-05-04T00:38:00.023Z,6.50
2023-05-04T00:48:05.629Z,6.37
2023-05-04T00:58:09.428Z,6.53
2023-05-04T01:08:17.252Z,6.73
2023-05-04T01:18:23.626Z,7.17
2023-05-04T01:28:35.893Z,6.33
2023-05-04T01:38:45.870Z,6.37
2023-05-04T01:48:50.466Z,6.50
2023-05-04T01:58:53.825Z,7.67
2023-05-04T02:08:55.935Z,8.10
2023-05-04T02:18:58.070Z,7.57
2023-05-04T02:29:03.735Z,8.17
2023-05-04T02:39:08.749Z,8.57
2023-05-04T02:49:13.211Z,8.13
2023-05-04T02:59:20.240Z,8.60
2023-05-04T03:09:24.467Z,8.00
2023-05-04T03:19:28.805Z,9.20
2023-05-04T03:29:31.776Z,9.37
2023-05-04T03:39:34.281Z,10.87
2023-05-04T03:49:36.577Z,12.43
2023-05-04T03:59:43.791Z,13.63
2023-05-04T04:09:48.339Z,14.40
2023-05-04T04:19:52.757Z,14.90
2023-05-04T04:29:59.141Z,13.73
2023-05-04T04:40:04.422Z,11.80
2023-05-04T04:50:11.834Z,12.13
2023-05-04T05:00:17.288Z,12.38
2023-05-04T05:10:21.787Z,12.70
2023-05-04T05:20:26.501Z,11.57
2023-05-04T05:30:29.105Z,12.70
2023-05-04T05:40:32.313Z,14.55
2023-05-04T05:50:37.524Z,13.07
2023-05-04T06:00:41.954Z,10.95
2023-05-04T06:10:44.072Z,8.93
2023-05-04T06:20:48.383Z,7.55
2023-05-04T06:30:51.823Z,5.88
2023-05-04T06:41:00.291Z,5.97
2023-05-04T06:51:07.349Z,5.50
2023-05-04T07:01:10.230Z,4.78
2023-05-04T07:11:19.097Z,5.22
2023-05-04T07:21:28.131Z,3.38
2023-05-04T07:31:35.345Z,3.67
2023-05-04T07:41:41.153Z,2.70
2023-05-04T07:51:43.420Z,2.30
2023-05-04T08:01:51.088Z,2.22
2023-05-04T08:11:56.146Z,1.77
2023-05-04T08:21:58.559Z,1.70
2023-05-04T08:32:08.339Z,1.48
2023-05-04T08:42:14.169Z,1.80
2023-05-04T08:52:21.724Z,1.60
2023-05-04T09:02:29.545Z,1.70
2023-05-04T09:12:40.356Z,1.70
2023-05-04T09:22:42.786Z,1.77
2023-05-04T09:32:51.549Z,1.65
2023-05-04T09:42:57.686Z,1.70
2023-05-04T09:52:59.947Z,2.00
2023-05-04T10:03:05.211Z,1.70
2023-05-04T10:13:09.918Z,1.85
2023-05-04T10:23:26.465Z,1.73
2023-05-04T10:33:43.680Z,1.55
2023-05-04T10:43:53.840Z,1.90
2023-05-04T10:54:01.911Z,1.90
2023-05-04T11:04:04.260Z,1.80
2023-05-04T11:14:22.063Z,1.77
2023-05-04T11:24:26.466Z,2.45
2023-05-04T11:34:32.580Z,3.78
2023-05-04T11:44:41.020Z,2.13
2023-05-04T11:54:43.175Z,2.30
2023-05-04T12:04:45.390Z,1.85
2023-05-04T12:14:53.392Z,2.20
2023-05-04T12:24:59.718Z,2.33
2023-05-04T12:35:05.100Z,2.70
2023-05-04T12:45:10.514Z,2.40
2023-05-04T12:55:15.084Z,2.10
2023-05-04T13:05:21.093Z,2.08
2023-05-04T13:15:23.893Z,2.25
2023-05-04T13:25:26.089Z,2.63
2023-05-04T13:35:29.157Z,2.42
2023-05-04T13:45:33.957Z,2.30
2023-05-04T13:55:41.045Z,2.10
2023-05-04T14:05:43.516Z,2.30
2023-05-04T14:15:47.784Z,2.50
2023-05-04T14:25:53.934Z,2.40
2023-05-04T14:35:59.334Z,2.35
2023-05-04T14:46:05.790Z,2.67
2023-05-04T14:56:10.153Z,2.22
2023-05-04T15:06:17.589Z,2.20
2023-05-04T15:16:23.550Z,2.30
2023-05-04T15:26:26.600Z,2.50
2023-05-04T15:36:28.987Z,2.22
2023-05-04T15:46:33.615Z,2.17
2023-05-04T15:56:36.361Z,2.00
2023-05-04T16:06:42.483Z,2.40
2023-05-04T16:16:44.838Z,2.97
2023-05-04T16:26:54.392Z,2.67
2023-05-04T16:36:58.996Z,2.35
2023-05-04T16:47:07.246Z,2.28
2023-05-04T16:57:09.386Z,2.40
2023-05-04T17:07:15.841Z,2.55
2023-05-04T17:17:21.246Z,1.80
2023-05-04T17:27:23.454Z,1.98
2023-05-04T17:37:29.717Z,1.30
2023-05-04T17:47:31.871Z,1.42
2023-05-04T17:57:34.080Z,1.90
2023-05-04T18:07:38.983Z,1.90
2023-05-04T18:17:46.187Z,2.03
2023-05-04T18:27:50.845Z,1.85
2023-05-04T18:37:53.838Z,2.55
2023-05-04T18:47:58.508Z,2.78
2023-05-04T18:58:04.839Z,2.42
2023-05-04T19:08:11.277Z,3.20
2023-05-04T19:18:15.570Z,4.13
2023-05-04T19:28:18.055Z,3.80
2023-05-04T19:38:23.327Z,2.78
2023-05-04T19:48:30.427Z,2.55
2023-05-04T19:58:32.671Z,2.97
2023-05-04T20:08:39.943Z,3.10
2023-05-04T20:18:42.239Z,3.60
2023-05-04T20:28:45.775Z,3.10
2023-05-04T20:38:48.021Z,3.45
2023-05-04T20:48:58.961Z,3.28
2023-05-04T20:59:05.981Z,4.13
2023-05-04T21:09:08.215Z,4.18
2023-05-04T21:19:12.869Z,4.18
2023-05-04T21:29:17.959Z,4.28
2023-05-04T21:39:26.627Z,4.30
2023-05-04T21:49:31.839Z,4.03
2023-05-04T21:59:37.862Z,4.18
2023-05-04T22:09:47.073Z,3.67
2023-05-04T22:19:54.434Z,5.20
2023-05-04T22:29:56.917Z,4.90
2023-05-04T22:40:00.621Z,4.13
2023-05-04T22:50:03.432Z,4.65
2023-05-04T23:00:08.217Z,3.67
2023-05-04T23:10:15.266Z,4.13
2023-05-04T23:20:24.537Z,4.20
2023-05-04T23:30:28.980Z,3.70
2023-05-04T23:40:31.104Z,3.80
2023-05-04T23:50:35.976Z,3.42
